Time;durP1;ratioP1;P1;durP2;ratioP2;P2;SDS_P1;SDS_P2;PMS_P1;PMS_P2;Temp;Humidity;BMP_temperature;BMP_pressure;BME280_temperature;BME280_humidity;BME280_pressure;Samples;Min_cycle;Max_cycle;Signal;HPM_P1;HPM_P2
2022/10/13 00:01:46;;;;;;;5.45;2.20;;;;;;;12.08;95.60;100990.94;5015453;28;20025;-74
2022/10/13 00:04:11;;;;;;;5.47;1.67;;;;;;;12.05;95.89;100993.50;5001537;28;20038;-75
2022/10/13 00:06:36;;;;;;;5.07;1.85;;;;;;;12.07;96.06;100994.03;4995069;28;20068;-75
2022/10/13 00:09:02;;;;;;;6.43;2.20;;;;;;;12.07;96.14;101013.53;4989208;28;20048;-75
2022/10/13 00:11:28;;;;;;;6.78;1.88;;;;;;;12.08;96.02;100998.47;4998797;28;20038;-75
2022/10/13 00:13:59;;;;;;;6.00;1.52;;;;;;;12.04;95.53;101006.59;5008126;28;20033;-75
2022/10/13 00:16:25;;;;;;;4.57;2.10;;;;;;;12.07;96.72;100996.81;4999226;28;20425;-75
2022/10/13 00:18:50;;;;;;;5.93;1.65;;;;;;;12.02;96.20;101000.47;5013493;28;20025;-75
2022/10/13 00:21:17;;;;;;;6.93;2.00;;;;;;;12.04;96.51;100992.66;5022436;28;20029;-75
2022/10/13 00:23:43;;;;;;;4.55;1.80;;;;;;;12.05;nan;100996.28;4984234;28;20033;-75
2022/10/13 00:26:09;;;;;;;5.50;1.52;;;;;;;12.03;96.21;100992.94;4994103;28;20045;-75
2022/10/13 00:28:35;;;;;;;3.83;1.65;;;;;;;12.01;96.35;100984.06;5008974;28;20026;-75
2022/10/13 00:31:01;;;;;;;3.70;1.75;;;;;;;12.01;96.50;100978.50;5001816;28;20048;-75
2022/10/13 00:33:26;;;;;;;4.32;1.80;;;;;;;12.01;97.37;100982.13;4992651;28;20026;-74
2022/10/13 00:35:52;;;;;;;5.68;2.13;;;;;;;12.00;97.67;100974.88;5010671;28;20072;-74
2022/10/13 00:38:18;;;;;;;5.68;1.85;;;;;;;12.01;97.69;100981.28;5024928;28;20385;-74
2022/10/13 00:40:51;;;;;;;7.70;1.80;;;;;;;11.99;97.26;100964.03;5036862;28;20087;-74
2022/10/13 00:43:46;;;;;;;7.35;2.30;;;;;;;11.95;96.82;100958.25;5011103;28;20105;-74
2022/10/13 00:46:11;;;;;;;6.85;2.10;;;;;;;11.99;97.33;100966.81;4982871;28;20029;-74
2022/10/13 00:48:37;;;;;;;4.15;1.50;;;;;;;11.98;96.98;100965.16;5009674;28;20028;-74
2022/10/13 00:51:02;;;;;;;6.40;1.70;;;;;;;11.99;97.95;100966.81;4984489;28;20032;-75
2022/10/13 00:53:30;;;;;;;6.93;2.25;;;;;;;12.00;98.42;100960.13;5024333;28;20069;-75
2022/10/13 00:55:55;;;;;;;3.72;1.70;;;;;;;11.99;98.12;100956.53;5035070;28;20033;-74
2022/10/13 00:58:21;;;;;;;4.18;1.45;;;;;;;11.97;97.27;100963.50;5030160;28;20044;-74
2022/10/13 01:00:48;;;;;;;5.97;2.00;;;;;;;11.97;97.58;100957.94;5007819;28;20442;-74
2022/10/13 01:03:13;;;;;;;6.05;1.90;;;;;;;11.95;97.09;100955.47;5005543;28;20059;-74
2022/10/13 01:05:39;;;;;;;5.15;1.95;;;;;;;11.92;96.46;100938.50;5007598;28;20697;-74
2022/10/13 01:08:05;;;;;;;5.00;1.67;;;;;;;11.95;98.23;100940.69;5013144;28;20030;-74
2022/10/13 01:11:08;;;;;;;3.78;1.40;;;;;;;11.91;97.59;100947.97;4989259;28;20021;-74
2022/10/13 01:13:42;;;;;;;4.68;1.85;;;;;;;11.92;97.68;100932.91;5029104;28;20095;-74
2022/10/13 01:16:13;;;;;;;4.68;1.50;;;;;;;11.90;97.37;100935.19;5028140;28;20417;-74
2022/10/13 01:18:42;;;;;;;7.93;2.10;;;;;;;11.91;97.53;100928.50;5044474;28;20509;-75
2022/10/13 01:21:18;;;;;;;4.78;1.60;;;;;;;11.89;98.11;100925.16;5018146;28;20041;-75
2022/10/13 01:23:46;;;;;;;5.13;1.35;;;;;;;11.91;98.55;100931.28;4985203;28;20037;-74
2022/10/13 01:26:41;;;;;;;6.18;1.88;;;;;;;11.89;98.89;100933.50;5046503;28;20452;-74
2022/10/13 01:29:45;;;;;;;4.57;1.77;;;;;;;11.89;98.79;100939.06;5006831;28;20553;-74
2022/10/13 01:32:34;;;;;;;5.88;1.85;;;;;;;11.87;98.51;100946.88;5036334;28;20036;-74
2022/10/13 01:35:11;;;;;;;7.63;1.92;;;;;;;11.88;99.18;100946.59;4987538;28;20079;-74
2022/10/13 01:37:53;;;;;;;5.38;1.83;;;;;;;11.86;99.88;100940.50;5026407;28;20045;-74
2022/10/13 01:40:41;;;;;;;5.18;1.70;;;;;;;11.83;100.00;100941.88;5033776;28;20034;-75
2022/10/13 01:43:12;;;;;;;7.65;2.30;;;;;;;11.87;99.58;100924.63;5022067;28;20038;-74
2022/10/13 01:45:44;;;;;;;4.90;1.70;;;;;;;11.84;100.00;100921.28;5005190;28;20041;-74
2022/10/13 01:48:09;;;;;;;6.13;1.70;;;;;;;11.85;99.99;100920.19;4988851;28;20034;-75
2022/10/13 01:50:35;;;;;;;5.43;1.50;;;;;;;11.83;99.63;100925.16;5002822;28;20036;-74
2022/10/13 01:53:01;;;;;;;5.80;1.85;;;;;;;11.85;99.93;100908.19;5001133;28;20053;-74
2022/10/13 01:55:28;;;;;;;8.15;2.00;;;;;;;11.81;99.20;100907.97;5015339;28;20107;-74
2022/10/13 01:57:54;;;;;;;5.70;2.05;;;;;;;11.83;99.84;100900.13;5019563;28;20030;-74
2022/10/13 02:00:20;;;;;;;6.40;1.88;;;;;;;11.82;99.75;100906.81;5002706;28;20084;-74
2022/10/13 02:02:57;;;;;;;7.85;2.08;;;;;;;11.81;100.00;100913.53;5024404;28;20082;-74
2022/10/13 02:05:48;;;;;;;3.72;1.75;;;;;;;11.81;100.00;100899.63;5038427;28;20061;-75
2022/10/13 02:08:22;;;;;;;4.50;1.70;;;;;;;11.81;100.00;100899.63;5029364;28;20037;-75
2022/10/13 02:10:56;;;;;;;6.82;2.10;;;;;;;11.81;100.00;100894.03;5034650;28;20255;-74
2022/10/13 02:13:23;;;;;;;4.82;2.08;;;;;;;11.81;100.00;100882.91;4999752;28;20045;-74
2022/10/13 02:15:50;;;;;;;6.63;2.13;;;;;;;11.81;100.00;100879.28;5004012;28;20029;-74
2022/10/13 02:18:19;;;;;;;6.18;2.35;;;;;;;11.82;100.00;100869.81;4997695;28;20112;-74
2022/10/13 02:20:44;;;;;;;7.07;2.20;;;;;;;11.80;100.00;100875.66;5014323;28;20486;-74
2022/10/13 02:23:12;;;;;;;6.53;2.42;;;;;;;11.80;100.00;100880.41;5011409;28;20052;-74
2022/10/13 02:25:38;;;;;;;6.60;2.17;;;;;;;11.79;100.00;100879.59;4991740;28;20028;-74
2022/10/13 02:28:04;;;;;;;7.10;2.38;;;;;;;11.77;100.00;100881.81;5010123;28;20026;-74
2022/10/13 02:30:32;;;;;;;7.97;2.65;;;;;;;11.78;100.00;100874.31;4984326;28;20065;-74
2022/10/13 02:32:58;;;;;;;8.02;2.70;;;;;;;11.76;100.00;100873.78;4983263;28;20486;-74
2022/10/13 02:35:24;;;;;;;6.97;2.20;;;;;;;11.76;100.00;100862.66;5000488;28;20040;-74
2022/10/13 02:37:49;;;;;;;6.43;2.33;;;;;;;11.75;100.00;100858.19;5015273;28;20021;-75
2022/10/13 02:40:14;;;;;;;10.32;2.50;;;;;;;11.75;100.00;100859.03;5018450;28;20036;-75
2022/10/13 02:42:40;;;;;;;6.72;2.72;;;;;;;11.74;100.00;100862.94;5016921;28;20390;-75
2022/10/13 02:45:06;;;;;;;6.43;2.50;;;;;;;11.74;100.00;100859.34;5003436;28;20038;-75
2022/10/13 02:47:31;;;;;;;7.65;2.65;;;;;;;11.73;100.00;100855.72;5007358;28;20056;-74
2022/10/13 02:49:57;;;;;;;5.85;2.80;;;;;;;11.70;100.00;100852.69;5021596;28;20087;-74
2022/10/13 02:52:23;;;;;;;6.75;2.97;;;;;;;11.71;100.00;100852.41;5000268;28;20037;-75
2022/10/13 02:54:48;;;;;;;5.00;2.10;;;;;;;11.70;100.00;100863.81;4992595;28;20086;-74
2022/10/13 02:57:14;;;;;;;7.63;2.60;;;;;;;11.71;100.00;100852.41;5006861;28;20063;-75
2022/10/13 02:59:39;;;;;;;8.20;2.42;;;;;;;11.70;100.00;100859.09;5021538;28;20394;-75
2022/10/13 03:02:05;;;;;;;7.53;2.63;;;;;;;11.70;100.00;100867.44;4996127;28;20026;-75
2022/10/13 03:04:30;;;;;;;7.53;2.65;;;;;;;11.67;100.00;100848.53;5034188;28;20034;-74
2022/10/13 03:06:56;;;;;;;11.05;2.92;;;;;;;11.69;100.00;100851.84;5008080;28;20057;-74
2022/10/13 03:09:21;;;;;;;9.45;3.10;;;;;;;11.67;100.00;100845.75;4998181;28;20084;-74
2022/10/13 03:11:47;;;;;;;7.15;2.53;;;;;;;11.67;100.00;100850.47;5013961;28;20033;-74
2022/10/13 03:14:12;;;;;;;8.07;3.00;;;;;;;11.65;100.00;100844.41;4996337;28;20048;-74
2022/10/13 03:16:38;;;;;;;9.18;2.90;;;;;;;11.63;100.00;100851.06;4996881;28;20492;-74
2022/10/13 03:19:03;;;;;;;7.10;2.28;;;;;;;11.63;100.00;100841.91;5029329;28;20034;-74
2022/10/13 03:21:29;;;;;;;11.45;3.22;;;;;;;11.61;100.00;100819.09;5000016;28;20029;-74
2022/10/13 03:23:54;;;;;;;9.02;3.00;;;;;;;11.62;100.00;100816.03;5006353;28;20037;-74
2022/10/13 03:26:20;;;;;;;7.88;2.80;;;;;;;11.63;100.00;100814.91;4995966;28;20036;-74
2022/10/13 03:28:49;;;;;;;9.25;2.55;;;;;;;11.61;100.00;100810.75;5026010;28;20030;-74
2022/10/13 03:31:14;;;;;;;7.70;2.60;;;;;;;11.65;100.00;100805.47;4990871;28;20059;-74
2022/10/13 03:33:40;;;;;;;8.25;2.70;;;;;;;11.64;100.00;100804.59;5002717;28;20036;-74
2022/10/13 03:36:06;;;;;;;9.52;2.83;;;;;;;11.63;100.00;100814.91;4999580;28;20034;-74
2022/10/13 03:38:32;;;;;;;10.38;2.97;;;;;;;11.64;100.00;100804.59;5017226;28;20029;-74
2022/10/13 03:41:03;;;;;;;8.95;2.90;;;;;;;11.64;100.00;100801.81;5001988;28;20080;-74
2022/10/13 03:43:29;;;;;;;7.95;2.90;;;;;;;11.63;100.00;100800.19;5022810;28;20032;-74
2022/10/13 03:45:58;;;;;;;6.45;2.42;;;;;;;11.63;100.00;100794.63;4983386;28;20392;-74
2022/10/13 03:48:24;;;;;;;7.78;2.45;;;;;;;11.63;100.00;100797.41;5034596;28;20033;-74
2022/10/13 03:50:50;;;;;;;7.15;2.35;;;;;;;11.62;100.00;100791.00;5001559;28;20039;-74
2022/10/13 03:53:15;;;;;;;9.27;2.83;;;;;;;11.63;100.00;100775.13;5006651;28;20426;-74
2022/10/13 03:55:40;;;;;;;5.57;2.50;;;;;;;11.65;100.00;100780.41;5034547;28;20039;-74
2022/10/13 03:58:06;;;;;;;8.25;2.45;;;;;;;11.60;100.00;100775.72;5017043;28;20033;-74
2022/10/13 04:00:34;;;;;;;9.45;2.95;;;;;;;11.60;100.00;100779.34;5002164;28;20390;-74
2022/10/13 04:03:00;;;;;;;8.77;2.80;;;;;;;11.61;100.00;100760.69;5008896;28;20029;-74
2022/10/13 04:05:25;;;;;;;7.75;2.20;;;;;;;11.61;100.00;100755.13;4999685;28;20116;-74
2022/10/13 04:07:51;;;;;;;6.95;2.53;;;;;;;11.62;100.00;100759.59;5022971;28;20119;-74
2022/10/13 04:10:16;;;;;;;7.43;2.67;;;;;;;11.62;100.00;100774.31;5002004;28;20028;-74
2022/10/13 04:12:42;;;;;;;10.70;2.55;;;;;;;11.59;100.00;100774.91;5004350;28;20401;-74
2022/10/13 04:15:08;;;;;;;7.15;2.50;;;;;;;11.61;100.00;100769.03;5014299;28;20030;-74
2022/10/13 04:17:34;;;;;;;5.80;2.40;;;;;;;11.61;100.00;100755.13;5030930;28;20068;-75
2022/10/13 04:19:59;;;;;;;7.85;2.67;;;;;;;11.60;100.00;100759.03;4985778;28;20030;-74
2022/10/13 04:22:25;;;;;;;6.40;2.45;;;;;;;11.59;100.00;100757.41;5022706;28;20094;-74
2022/10/13 04:24:50;;;;;;;6.10;2.17;;;;;;;11.61;100.00;100752.34;4993436;28;20037;-75
2022/10/13 04:27:18;;;;;;;7.07;2.35;;;;;;;11.60;100.00;100759.88;5038641;28;20496;-74
2022/10/13 04:29:44;;;;;;;7.55;2.22;;;;;;;11.62;100.00;100762.38;5005472;28;20021;-75
2022/10/13 04:32:09;;;;;;;4.35;1.90;;;;;;;11.60;100.00;100761.81;5033138;28;20036;-75
2022/10/13 04:34:35;;;;;;;8.00;2.45;;;;;;;11.58;100.00;100766.84;5013109;28;20021;-75
2022/10/13 04:37:00;;;;;;;7.65;2.42;;;;;;;11.60;100.00;100759.03;4998529;28;20038;-75
2022/10/13 04:39:25;;;;;;;7.82;2.30;;;;;;;11.58;100.00;100764.06;4998763;28;20034;-75
2022/10/13 04:41:51;;;;;;;9.38;2.85;;;;;;;11.58;100.00;100755.72;4982238;28;20026;-74
2022/10/13 04:44:16;;;;;;;12.27;2.97;;;;;;;11.56;100.00;100756.03;4998556;28;20034;-75
2022/10/13 04:46:42;;;;;;;4.75;2.50;;;;;;;11.56;100.00;100763.50;4982445;28;20022;-75
2022/10/13 04:49:07;;;;;;;4.60;2.20;;;;;;;11.55;100.00;100765.47;5015051;28;20030;-75
2022/10/13 04:51:33;;;;;;;6.47;2.88;;;;;;;11.57;100.00;100767.97;4998805;28;20054;-75
2022/10/13 04:54:04;;;;;;;6.03;3.10;;;;;;;11.55;100.00;100770.22;5001503;28;20462;-75
2022/10/13 04:56:29;;;;;;;8.70;2.67;;;;;;;11.56;100.00;100769.09;4982541;28;20036;-74
2022/10/13 04:58:55;;;;;;;5.78;2.40;;;;;;;11.55;100.00;100757.13;4994406;28;20113;-75
2022/10/13 05:01:22;;;;;;;8.95;3.13;;;;;;;11.55;100.00;100750.75;4989503;28;20030;-75
2022/10/13 05:03:56;;;;;;;6.97;2.78;;;;;;;11.54;100.00;100744.34;4996513;28;20029;-75
2022/10/13 05:06:23;;;;;;;6.78;2.70;;;;;;;11.55;100.00;100753.53;5014815;28;20667;-74
2022/10/13 05:08:49;;;;;;;6.68;3.10;;;;;;;11.55;100.00;100757.13;5017263;28;20025;-74
2022/10/13 05:11:15;;;;;;;8.45;2.80;;;;;;;11.54;100.00;100761.06;5009104;28;20104;-75
2022/10/13 05:13:40;;;;;;;5.65;2.53;;;;;;;11.57;100.00;100757.69;5013864;28;20050;-74
2022/10/13 05:16:10;;;;;;;3.30;2.20;;;;;;;11.58;100.00;100752.94;5007035;28;20033;-74
2022/10/13 05:18:36;;;;;;;8.20;2.92;;;;;;;11.58;100.00;100744.59;5005543;28;20042;-74
2022/10/13 05:21:24;;;;;;;6.13;2.42;;;;;;;11.60;100.00;100754.31;5001719;28;20033;-74
2022/10/13 05:23:54;;;;;;;6.82;2.80;;;;;;;11.61;100.00;100750.38;5031394;28;20064;-71
2022/10/13 05:26:19;;;;;;;10.15;3.50;;;;;;;11.63;100.00;100747.31;4989146;28;20112;-74
2022/10/13 05:28:45;;;;;;;10.48;3.65;;;;;;;11.65;100.00;100741.47;5014855;28;20021;-74
2022/10/13 05:31:21;;;;;;;7.78;3.35;;;;;;;11.67;100.00;100741.97;5028254;28;20025;-74
2022/10/13 05:33:47;;;;;;;5.18;3.00;;;;;;;11.66;100.00;100735.59;4981772;28;20030;-74
2022/10/13 05:36:23;;;;;;;8.02;3.97;;;;;;;11.68;100.00;100738.91;4998387;28;20105;-74
2022/10/13 05:38:53;;;;;;;7.82;3.15;;;;;;;11.68;100.00;100738.91;5016141;28;20105;-74
2022/10/13 05:41:18;;;;;;;8.13;3.20;;;;;;;11.70;100.00;100731.13;5024488;28;20033;-74
2022/10/13 05:43:44;;;;;;;7.63;2.92;;;;;;;11.72;100.00;100723.28;5001561;28;20026;-74
2022/10/13 05:46:09;;;;;;;5.57;2.58;;;;;;;11.73;100.00;100726.88;5018133;28;20072;-75
2022/10/13 05:48:35;;;;;;;7.35;3.10;;;;;;;11.74;100.00;100721.03;4988343;28;20040;-75
2022/10/13 05:51:04;;;;;;;7.15;2.53;;;;;;;11.76;100.00;100716.00;5022085;28;20083;-74
2022/10/13 05:53:31;;;;;;;6.45;3.03;;;;;;;11.77;100.00;100709.31;5019794;28;20025;-74
2022/10/13 05:55:57;;;;;;;9.55;3.60;;;;;;;11.78;100.00;100708.19;4987277;28;20037;-74
2022/10/13 05:58:23;;;;;;;7.30;3.50;;;;;;;11.80;100.00;100711.50;5011046;28;20102;-74
2022/10/13 06:00:48;;;;;;;7.03;2.78;;;;;;;11.80;100.00;100714.28;4999714;28;20543;-74
2022/10/13 06:03:19;;;;;;;5.88;2.47;;;;;;;11.82;100.00;100711.22;5029280;28;20033;-74
2022/10/13 06:05:48;;;;;;;5.85;3.13;;;;;;;11.82;100.00;100717.59;5007437;28;20050;-75
2022/10/13 06:08:14;;;;;;;7.82;2.60;;;;;;;11.82;100.00;100709.25;5021017;28;20037;-74
2022/10/13 06:10:40;;;;;;;6.78;3.00;;;;;;;11.83;100.00;100716.47;5031841;28;20638;-74
2022/10/13 06:13:05;;;;;;;10.50;4.75;;;;;;;11.87;100.00;100699.19;5015820;28;20096;-75
2022/10/13 06:15:31;;;;;;;6.72;3.40;;;;;;;11.86;100.00;100692.81;5005749;28;20025;-74
2022/10/13 06:17:57;;;;;;;7.18;3.40;;;;;;;11.89;100.00;100699.72;5020260;28;20029;-74
2022/10/13 06:20:23;;;;;;;6.13;2.97;;;;;;;11.89;100.00;100689.44;5004177;28;20064;-74
2022/10/13 06:22:49;;;;;;;10.88;3.85;;;;;;;11.92;100.00;100690.78;5017511;28;20044;-74
2022/10/13 06:25:15;;;;;;;7.20;3.85;;;;;;;11.94;100.00;100680.19;5001336;28;20038;-75
2022/10/13 06:27:40;;;;;;;7.15;3.40;;;;;;;11.93;100.00;100673.81;5020270;28;20037;-74
2022/10/13 06:30:07;;;;;;;4.93;3.03;;;;;;;11.93;100.00;100668.22;5017694;28;20045;-74
2022/10/13 06:32:32;;;;;;;5.35;2.75;;;;;;;11.96;100.00;100666.81;5000644;28;20032;-74
2022/10/13 06:34:58;;;;;;;12.60;4.80;;;;;;;11.97;100.00;100668.47;4996756;28;20104;-74
2022/10/13 06:37:23;;;;;;;6.18;3.30;;;;;;;11.97;100.00;100669.28;5003543;28;20620;-74
2022/10/13 06:39:49;;;;;;;10.35;4.15;;;;;;;12.00;100.00;100667.84;5021007;28;20040;-74
2022/10/13 06:42:15;;;;;;;7.22;4.18;;;;;;;12.02;100.00;100669.22;5036980;28;20025;-74
2022/10/13 06:44:40;;;;;;;6.13;3.40;;;;;;;12.02;100.00;100660.88;5029520;28;20029;-74
2022/10/13 06:47:06;;;;;;;7.78;3.80;;;;;;;12.04;100.00;100661.41;5021984;28;20048;-74
2022/10/13 06:49:31;;;;;;;9.57;3.72;;;;;;;12.03;100.00;100656.94;5004227;28;20083;-74
2022/10/13 06:51:57;;;;;;;7.07;3.75;;;;;;;12.06;100.00;100655.50;4997046;28;20029;-74
2022/10/13 06:54:22;;;;;;;7.15;3.28;;;;;;;12.08;100.00;100658.84;5026452;28;20033;-74
2022/10/13 06:56:48;;;;;;;7.18;4.13;;;;;;;12.09;100.00;100654.94;5012388;28;20112;-74
2022/10/13 06:59:13;;;;;;;7.38;3.55;;;;;;;12.12;100.00;100656.25;5032164;28;20029;-74
2022/10/13 07:01:39;;;;;;;8.98;3.42;;;;;;;12.13;100.00;100647.63;5010098;28;20045;-74
2022/10/13 07:04:04;;;;;;;8.02;3.78;;;;;;;12.16;100.00;100632.28;4999854;28;20053;-75
2022/10/13 07:06:30;;;;;;;7.65;3.55;;;;;;;12.18;100.00;100635.59;4983679;28;20061;-74
2022/10/13 07:08:55;;;;;;;5.90;3.40;;;;;;;12.20;100.00;100641.66;5014149;28;20087;-74
2022/10/13 07:11:21;;;;;;;6.82;4.00;;;;;;;12.21;100.00;100646.13;5019532;28;20030;-75
2022/10/13 07:13:47;;;;;;;8.45;4.30;;;;;;;12.22;100.00;100648.59;5016143;28;20026;-74
2022/10/13 07:16:12;;;;;;;8.00;4.95;;;;;;;12.26;100.00;100660.78;5025681;28;20033;-75
2022/10/13 07:18:38;;;;;;;6.97;3.70;;;;;;;12.29;100.00;100654.63;4999625;28;20433;-74
2022/10/13 07:21:03;;;;;;;9.10;4.10;;;;;;;12.31;100.00;100651.50;5019133;28;20072;-74
2022/10/13 07:23:29;;;;;;;7.72;4.78;;;;;;;12.34;100.00;100638.94;5000223;28;20541;-74
2022/10/13 07:25:58;;;;;;;6.82;4.38;;;;;;;12.34;100.00;100638.94;4982637;28;20066;-75
2022/10/13 07:28:24;;;;;;;6.05;3.72;;;;;;;12.37;100.00;100641.13;5007471;28;20025;-75
2022/10/13 07:30:49;;;;;;;9.55;5.13;;;;;;;12.41;100.00;100636.63;5021831;28;20029;-74
2022/10/13 07:33:15;;;;;;;8.82;5.50;;;;;;;12.42;100.00;100647.44;4994726;28;20107;-75
2022/10/13 07:35:41;;;;;;;13.98;6.28;;;;;;;12.45;100.00;100646.00;5026441;28;20065;-74
2022/10/13 07:38:06;;;;;;;13.38;5.43;;;;;;;12.48;100.00;100640.69;4989568;28;20047;-75
2022/10/13 07:40:32;;;;;;;8.70;4.78;;;;;;;12.52;100.00;100649.25;5000902;28;20041;-74
2022/10/13 07:42:57;;;;;;;13.93;6.32;;;;;;;12.56;100.00;100646.69;4983762;28;20089;-74
2022/10/13 07:45:23;;;;;;;10.75;6.90;;;;;;;12.57;100.00;100649.16;4984610;28;20037;-74
2022/10/13 07:47:49;;;;;;;12.73;5.20;;;;;;;12.58;100.00;100645.25;5015734;28;20375;-74
2022/10/13 07:50:14;;;;;;;12.43;5.90;;;;;;;12.62;100.00;100649.09;4987484;28;20061;-74
2022/10/13 07:52:40;;;;;;;9.68;4.97;;;;;;;12.65;100.00;100650.44;5000765;28;20025;-74
2022/10/13 07:55:06;;;;;;;12.05;5.25;;;;;;;12.67;100.00;100657.34;4999245;28;20042;-74
2022/10/13 07:57:31;;;;;;;12.30;5.03;;;;;;;12.70;100.00;100653.13;4997148;28;20037;-75
2022/10/13 07:59:57;;;;;;;14.23;4.50;;;;;;;12.71;100.00;100661.19;4999143;28;20037;-74
2022/10/13 08:02:23;;;;;;;9.18;5.10;;;;;;;12.75;100.00;100659.44;5018052;28;20056;-74
2022/10/13 08:04:48;;;;;;;11.07;5.07;;;;;;;12.78;100.00;100665.53;5014158;28;20036;-74
2022/10/13 08:07:15;;;;;;;8.23;5.25;;;;;;;12.79;100.00;100659.66;5018383;28;20412;-74
2022/10/13 08:09:41;;;;;;;7.90;4.93;;;;;;;12.83;100.00;100654.31;5003938;28;20450;-74
2022/10/13 08:12:07;;;;;;;11.40;4.03;;;;;;;12.84;100.00;100644.78;5000205;28;20044;-74
2022/10/13 08:14:32;;;;;;;8.98;4.85;;;;;;;12.87;100.00;100644.19;4995593;28;20026;-74
2022/10/13 08:16:58;;;;;;;9.15;4.70;;;;;;;12.88;100.00;100654.22;5018680;28;20393;-74
2022/10/13 08:19:25;;;;;;;8.18;4.60;;;;;;;12.91;100.00;100651.63;5010153;28;21417;-74
2022/10/13 08:21:50;;;;;;;9.50;4.32;;;;;;;12.92;100.00;100652.47;4999703;28;20044;-74
2022/10/13 08:24:16;;;;;;;9.43;4.22;;;;;;;12.93;100.00;100649.38;5005310;28;20041;-74
2022/10/13 08:26:42;;;;;;;14.55;5.40;;;;;;;12.97;100.00;100639.25;4998555;28;20033;-74
2022/10/13 08:29:07;;;;;;;10.10;4.63;;;;;;;13.01;100.00;100635.84;5015509;28;20030;-75
2022/10/13 08:31:33;;;;;;;12.38;4.95;;;;;;;13.04;100.00;100641.66;5027048;28;20064;-74
2022/10/13 08:33:58;;;;;;;9.63;5.45;;;;;;;13.07;100.00;100632.66;5048175;28;20029;-74
2022/10/13 08:36:24;;;;;;;8.30;4.97;;;;;;;13.12;100.00;100629.78;5031389;28;20025;-74
2022/10/13 08:38:51;;;;;;;7.97;4.82;;;;;;;13.17;100.00;100626.88;5018366;28;20026;-74
2022/10/13 08:41:19;;;;;;;11.18;3.88;;;;;;;13.21;100.00;100626.28;5001487;28;20034;-74
2022/10/13 08:43:55;;;;;;;10.38;5.10;;;;;;;13.28;100.00;100626.72;5009689;28;20033;-74
2022/10/13 08:46:28;;;;;;;7.75;4.18;;;;;;;13.34;100.00;100622.69;5004810;28;20034;-74
2022/10/13 08:48:54;;;;;;;7.45;4.07;;;;;;;13.40;100.00;100627.06;5015070;28;20117;-74
2022/10/13 08:51:20;;;;;;;7.85;3.80;;;;;;;13.46;100.00;100623.00;4994592;28;20091;-74
2022/10/13 08:53:46;;;;;;;7.68;4.53;;;;;;;13.56;100.00;100624.75;4989745;28;20022;-74
2022/10/13 08:56:24;;;;;;;8.75;4.10;;;;;;;13.62;100.00;100620.69;4980884;28;20048;-74
2022/10/13 08:58:53;;;;;;;10.25;4.65;;;;;;;13.70;100.00;100614.38;4982840;28;20492;-74
2022/10/13 09:01:28;;;;;;;10.60;4.30;;;;;;;13.79;100.00;100618.13;4998479;28;20044;-74
2022/10/13 09:04:27;;;;;;;11.65;5.00;;;;;;;13.84;100.00;100611.56;5018530;28;20569;-75
2022/10/13 09:07:18;;;;;;;11.40;4.28;;;;;;;13.91;100.00;100608.38;5017748;28;20073;-75
2022/10/13 09:09:43;;;;;;;11.65;5.53;;;;;;;13.98;100.00;100606.78;5017664;28;20041;-74
2022/10/13 09:12:11;;;;;;;11.88;5.47;;;;;;;14.05;100.00;100603.56;5003845;28;20064;-75
2022/10/13 09:14:37;;;;;;;7.78;4.53;;;;;;;14.09;100.00;100610.16;5015271;28;20085;-74
2022/10/13 09:17:13;;;;;;;12.57;6.43;;;;;;;14.16;100.00;100604.97;4989573;28;20505;-75
2022/10/13 09:19:39;;;;;;;9.05;4.82;;;;;;;14.18;100.00;100604.66;5010240;28;20021;-74
2022/10/13 09:22:38;;;;;;;10.10;5.05;;;;;;;14.21;100.00;100602.06;5004259;28;20042;-74
2022/10/13 09:25:07;;;;;;;11.00;5.70;;;;;;;14.26;100.00;100595.50;5024691;28;20083;-75
2022/10/13 09:27:51;;;;;;;15.57;5.80;;;;;;;14.31;100.00;100606.56;5044588;28;20029;-74
2022/10/13 09:30:37;;;;;;;10.05;5.78;;;;;;;14.28;100.00;100604.41;5024621;28;20037;-74
2022/10/13 09:33:10;;;;;;;17.27;7.22;;;;;;;14.33;100.00;100598.69;5004510;28;20069;-74
2022/10/13 09:35:43;;;;;;;14.55;6.25;;;;;;;14.35;100.00;100596.44;5038225;28;20037;-74
2022/10/13 09:38:20;;;;;;;14.73;7.80;;;;;;;14.38;100.00;100595.78;5003471;28;20038;-74
2022/10/13 09:41:02;;;;;;;11.43;6.82;;;;;;;14.40;100.00;100587.06;5002548;28;20037;-74
2022/10/13 09:43:37;;;;;;;14.50;7.30;;;;;;;14.44;100.00;100597.31;5024590;28;20033;-74
2022/10/13 09:46:18;;;;;;;10.32;5.63;;;;;;;14.47;100.00;100599.47;5028643;28;20040;-74
2022/10/13 09:48:47;;;;;;;14.05;6.63;;;;;;;14.49;100.00;100599.97;5034012;28;20517;-74
2022/10/13 09:51:43;;;;;;;14.55;6.75;;;;;;;14.52;100.00;100602.16;4991913;28;20025;-74
2022/10/13 09:54:34;;;;;;;16.70;7.00;;;;;;;14.54;100.00;100596.22;5021587;28;20049;-74
2022/10/13 09:57:10;;;;;;;11.70;5.95;;;;;;;14.55;100.00;100595.13;5037214;28;20045;-74
2022/10/13 09:59:45;;;;;;;11.70;6.45;;;;;;;14.63;100.00;100587.94;5035555;28;20469;-74
2022/10/13 10:02:27;;;;;;;13.60;6.38;;;;;;;14.65;100.00;100594.00;5001483;28;20053;-74
2022/10/13 10:04:53;;;;;;;13.10;6.57;;;;;;;14.64;100.00;100587.59;5025259;28;20512;-74
2022/10/13 10:07:20;;;;;;;10.23;6.20;;;;;;;14.68;100.00;100580.25;4989743;28;20041;-74
2022/10/13 10:10:04;;;;;;;11.52;5.47;;;;;;;14.72;100.00;100580.41;5012914;28;20671;-74
2022/10/13 10:12:30;;;;;;;11.27;6.15;;;;;;;14.75;100.00;100565.78;5015449;28;20032;-74
2022/10/13 10:14:56;;;;;;;10.55;6.00;;;;;;;14.81;100.00;100567.28;4996842;28;20029;-74
2022/10/13 10:17:44;;;;;;;13.27;6.38;;;;;;;14.84;100.00;100561.06;5005258;28;20026;-74
2022/10/13 10:20:21;;;;;;;8.77;5.18;;;;;;;14.86;100.00;100561.56;4984701;28;20025;-74
2022/10/13 10:22:55;;;;;;;12.07;5.72;;;;;;;14.91;100.00;100557.81;5013480;28;20030;-74
2022/10/13 10:25:58;;;;;;;11.82;5.57;;;;;;;14.94;100.00;100558.00;5035157;28;20383;-74
2022/10/13 10:28:36;;;;;;;12.68;6.40;;;;;;;15.00;100.00;100555.06;5036873;28;20041;-74
2022/10/13 10:31:29;;;;;;;12.10;5.32;;;;;;;15.02;100.00;100552.78;5032423;28;20037;-74
2022/10/13 10:34:11;;;;;;;9.18;5.53;;;;;;;15.04;100.00;100556.88;5017227;28;20041;-74
2022/10/13 10:36:40;;;;;;;11.63;6.40;;;;;;;15.08;100.00;100562.66;5004716;28;20037;-74
2022/10/13 10:39:38;;;;;;;7.82;5.82;;;;;;;15.08;100.00;100555.09;5020533;28;20075;-74
2022/10/13 10:42:43;;;;;;;9.20;5.95;;;;;;;15.13;100.00;100559.72;5040578;28;20077;-74
2022/10/13 10:45:17;;;;;;;9.55;6.22;;;;;;;15.16;100.00;100548.69;5022176;28;20105;-74
2022/10/13 10:47:45;;;;;;;10.98;5.95;;;;;;;15.18;100.00;100553.94;5000747;28;20033;-74
2022/10/13 10:50:13;;;;;;;9.65;5.50;;;;;;;15.19;100.00;100550.03;5009915;28;20056;-74
2022/10/13 10:52:45;;;;;;;10.90;6.10;;;;;;;15.20;100.00;100546.06;5006011;28;20455;-74
2022/10/13 10:55:28;;;;;;;12.52;6.22;;;;;;;15.26;100.00;100553.16;5023846;28;20035;-74
2022/10/13 10:58:23;;;;;;;14.18;6.75;;;;;;;15.31;100.00;100541.00;5001029;28;20364;-74
2022/10/13 11:01:10;;;;;;;8.15;5.22;;;;;;;15.31;100.00;100544.63;5011969;28;20037;-75
2022/10/13 11:03:48;;;;;;;10.00;5.18;;;;;;;15.32;100.00;100545.44;5036163;28;20071;-74
2022/10/13 11:06:16;;;;;;;7.93;5.15;;;;;;;15.36;100.00;100540.84;5008539;28;20045;-74
2022/10/13 11:08:46;;;;;;;10.45;5.20;;;;;;;15.36;100.00;100547.28;5039535;28;20437;-74
2022/10/13 11:11:21;;;;;;;6.82;4.78;;;;;;;15.37;100.00;100537.72;4999644;28;20490;-74
2022/10/13 11:13:54;;;;;;;12.85;4.85;;;;;;;15.37;100.00;100548.91;5022682;28;20033;-74
2022/10/13 11:16:25;;;;;;;9.80;4.63;;;;;;;15.36;100.00;100541.69;4992976;28;20430;-74
2022/10/13 11:19:07;;;;;;;15.35;4.57;;;;;;;15.39;100.00;100541.03;5032295;28;20095;-74
2022/10/13 11:21:51;;;;;;;9.63;4.50;;;;;;;15.37;100.00;100529.31;5031074;28;20029;-74
2022/10/13 11:24:35;;;;;;;9.52;4.65;;;;;;;15.36;100.00;100544.47;5049162;28;20523;-74
2022/10/13 11:27:06;;;;;;;7.50;3.47;;;;;;;15.35;100.00;100537.25;5028215;28;20044;-74
2022/10/13 11:29:56;;;;;;;9.00;3.53;;;;;;;15.34;100.00;100545.94;5045417;28;20092;-74